sensor_id;sensor_type;location;lat;lon;timestamp;pressure;altitude;pressure_sealevel;temperature;humidity
35806;BME280;21925;44.608;11.580;2023-07-09T00:00:01;102009.72;;;26.88;90.41
35806;BME280;21925;44.608;11.580;2023-07-09T00:02:27;102011.31;;;26.89;90.31
35806;BME280;21925;44.608;11.580;2023-07-09T00:04:53;101999.59;;;26.68;92.51
35806;BME280;21925;44.608;11.580;2023-07-09T00:07:27;102013.53;;;27.01;87.58
35806;BME280;21925;44.608;11.580;2023-07-09T00:09:54;102015.13;;;27.02;89.05
35806;BME280;21925;44.608;11.580;2023-07-09T00:12:20;102011.81;;;27.07;87.62
35806;BME280;21925;44.608;11.580;2023-07-09T00:14:46;102012.81;;;26.94;88.21
35806;BME280;21925;44.608;11.580;2023-07-09T00:17:20;102009.53;;;26.99;87.39
35806;BME280;21925;44.608;11.580;2023-07-09T00:19:47;102008.00;;;26.94;88.37
35806;BME280;21925;44.608;11.580;2023-07-09T00:22:17;102008.81;;;26.68;92.04
35806;BME280;21925;44.608;11.580;2023-07-09T00:24:49;102008.03;;;26.68;90.43
35806;BME280;21925;44.608;11.580;2023-07-09T00:27:20;102007.13;;;26.74;90.19
35806;BME280;21925;44.608;11.580;2023-07-09T00:29:46;102006.84;;;26.65;91.87
35806;BME280;21925;44.608;11.580;2023-07-09T00:32:19;102005.38;;;26.58;93.37
35806;BME280;21925;44.608;11.580;2023-07-09T00:34:50;101993.06;;;26.48;94.63
35806;BME280;21925;44.608;11.580;2023-07-09T00:37:20;102004.75;;;26.47;94.94
35806;BME280;21925;44.608;11.580;2023-07-09T00:39:47;101999.06;;;26.50;93.27
35806;BME280;21925;44.608;11.580;2023-07-09T00:42:19;101998.28;;;26.50;90.43
35806;BME280;21925;44.608;11.580;2023-07-09T00:44:47;102003.00;;;26.56;88.98
35806;BME280;21925;44.608;11.580;2023-07-09T00:47:22;101997.31;;;26.60;90.70
35806;BME280;21925;44.608;11.580;2023-07-09T00:50:09;102001.56;;;26.45;93.10
35806;BME280;21925;44.608;11.580;2023-07-09T00:52:49;102003.28;;;26.39;93.34
35806;BME280;21925;44.608;11.580;2023-07-09T00:55:18;102010.16;;;26.61;90.22
35806;BME280;21925;44.608;11.580;2023-07-09T00:57:48;101995.84;;;26.52;91.64
35806;BME280;21925;44.608;11.580;2023-07-09T01:00:25;102004.59;;;26.57;91.12
35806;BME280;21925;44.608;11.580;2023-07-09T01:02:53;102006.97;;;26.59;89.54
35806;BME280;21925;44.608;11.580;2023-07-09T01:05:19;102005.94;;;26.49;91.02
35806;BME280;21925;44.608;11.580;2023-07-09T01:07:46;101995.56;;;26.43;92.88
35806;BME280;21925;44.608;11.580;2023-07-09T01:10:15;101999.41;;;26.26;95.00
35806;BME280;21925;44.608;11.580;2023-07-09T01:12:42;101991.13;;;26.15;92.87
35806;BME280;21925;44.608;11.580;2023-07-09T01:15:09;101995.84;;;26.22;91.60
35806;BME280;21925;44.608;11.580;2023-07-09T01:17:36;101991.66;;;26.07;91.91
35806;BME280;21925;44.608;11.580;2023-07-09T01:20:02;101995.19;;;26.11;93.86
35806;BME280;21925;44.608;11.580;2023-07-09T01:22:28;101987.38;;;26.25;90.98
35806;BME280;21925;44.608;11.580;2023-07-09T01:25:04;101992.94;;;26.29;93.21
35806;BME280;21925;44.608;11.580;2023-07-09T01:27:39;101978.28;;;26.14;91.68
35806;BME280;21925;44.608;11.580;2023-07-09T01:30:10;101987.16;;;26.13;93.00
35806;BME280;21925;44.608;11.580;2023-07-09T01:32:37;101989.00;;;25.60;95.09
35806;BME280;21925;44.608;11.580;2023-07-09T01:35:05;101996.19;;;25.64;96.89
35806;BME280;21925;44.608;11.580;2023-07-09T01:37:34;101985.78;;;25.61;93.82
35806;BME280;21925;44.608;11.580;2023-07-09T01:40:02;101984.44;;;25.76;91.55
35806;BME280;21925;44.608;11.580;2023-07-09T01:42:31;101992.38;;;25.48;98.27
35806;BME280;21925;44.608;11.580;2023-07-09T01:44:57;101991.19;;;25.45;97.29
35806;BME280;21925;44.608;11.580;2023-07-09T01:47:23;101988.50;;;25.35;97.71
35806;BME280;21925;44.608;11.580;2023-07-09T01:49:50;101991.34;;;25.31;96.67
35806;BME280;21925;44.608;11.580;2023-07-09T01:52:16;101998.13;;;25.34;95.76
35806;BME280;21925;44.608;11.580;2023-07-09T01:54:44;101980.28;;;25.51;93.24
35806;BME280;21925;44.608;11.580;2023-07-09T01:57:30;101983.34;;;25.63;93.55
35806;BME280;21925;44.608;11.580;2023-07-09T02:00:01;101990.41;;;25.45;97.68
35806;BME280;21925;44.608;11.580;2023-07-09T02:02:40;101987.47;;;25.55;95.41
35806;BME280;21925;44.608;11.580;2023-07-09T02:05:11;101983.53;;;25.49;97.25
35806;BME280;21925;44.608;11.580;2023-07-09T02:07:38;101994.81;;;25.46;95.66
35806;BME280;21925;44.608;11.580;2023-07-09T02:10:05;101987.75;;;25.31;95.41
35806;BME280;21925;44.608;11.580;2023-07-09T02:12:31;101996.06;;;25.41;94.85
35806;BME280;21925;44.608;11.580;2023-07-09T02:14:56;101993.94;;;25.52;93.92
35806;BME280;21925;44.608;11.580;2023-07-09T02:17:23;101992.25;;;25.21;98.36
35806;BME280;21925;44.608;11.580;2023-07-09T02:19:50;101998.56;;;25.32;95.84
35806;BME280;21925;44.608;11.580;2023-07-09T02:22:16;102003.22;;;25.02;100.00
35806;BME280;21925;44.608;11.580;2023-07-09T02:24:42;101994.41;;;25.03;96.93
35806;BME280;21925;44.608;11.580;2023-07-09T02:27:09;102001.91;;;25.17;97.19
35806;BME280;21925;44.608;11.580;2023-07-09T02:29:36;102005.53;;;25.17;98.60
35806;BME280;21925;44.608;11.580;2023-07-09T02:32:02;102005.56;;;25.14;98.76
35806;BME280;21925;44.608;11.580;2023-07-09T02:34:30;102007.94;;;25.15;98.68
35806;BME280;21925;44.608;11.580;2023-07-09T02:36:58;102016.03;;;25.06;100.00
35806;BME280;21925;44.608;11.580;2023-07-09T02:39:24;102008.78;;;25.09;100.00
35806;BME280;21925;44.608;11.580;2023-07-09T02:41:50;102008.84;;;25.02;99.52
35806;BME280;21925;44.608;11.580;2023-07-09T02:44:17;102025.66;;;25.05;100.00
35806;BME280;21925;44.608;11.580;2023-07-09T02:46:43;102033.72;;;25.03;100.00
35806;BME280;21925;44.608;11.580;2023-07-09T02:49:11;102027.91;;;25.24;97.59
35806;BME280;21925;44.608;11.580;2023-07-09T02:51:37;102030.31;;;25.26;95.44
35806;BME280;21925;44.608;11.580;2023-07-09T02:54:04;102032.81;;;25.13;95.93
35806;BME280;21925;44.608;11.580;2023-07-09T02:56:30;102035.38;;;24.94;98.45
35806;BME280;21925;44.608;11.580;2023-07-09T02:58:56;102038.47;;;25.06;97.04
35806;BME280;21925;44.608;11.580;2023-07-09T03:01:22;102044.41;;;25.19;96.06
35806;BME280;21925;44.608;11.580;2023-07-09T03:03:51;102036.88;;;25.05;99.55
35806;BME280;21925;44.608;11.580;2023-07-09T03:06:19;102044.16;;;24.99;95.36
35806;BME280;21925;44.608;11.580;2023-07-09T03:08:45;102041.94;;;24.74;96.17
35806;BME280;21925;44.608;11.580;2023-07-09T03:11:11;102042.69;;;24.85;97.01
35806;BME280;21925;44.608;11.580;2023-07-09T03:13:37;102038.31;;;24.80;99.28
35806;BME280;21925;44.608;11.580;2023-07-09T03:16:03;102042.31;;;24.79;99.65
35806;BME280;21925;44.608;11.580;2023-07-09T03:18:29;102040.19;;;24.36;97.98
35806;BME280;21925;44.608;11.580;2023-07-09T03:20:54;102058.66;;;24.30;100.00
35806;BME280;21925;44.608;11.580;2023-07-09T03:23:20;102044.56;;;24.44;100.00
35806;BME280;21925;44.608;11.580;2023-07-09T03:25:46;102054.97;;;24.47;100.00
35806;BME280;21925;44.608;11.580;2023-07-09T03:28:12;102047.47;;;24.23;100.00
35806;BME280;21925;44.608;11.580;2023-07-09T03:30:44;102051.16;;;23.99;100.00
35806;BME280;21925;44.608;11.580;2023-07-09T03:33:11;102043.25;;;23.70;100.00
35806;BME280;21925;44.608;11.580;2023-07-09T03:35:37;102036.06;;;23.76;100.00
35806;BME280;21925;44.608;11.580;2023-07-09T03:38:05;102043.53;;;24.07;100.00
35806;BME280;21925;44.608;11.580;2023-07-09T03:40:31;102047.25;;;23.69;100.00
35806;BME280;21925;44.608;11.580;2023-07-09T03:42:57;102050.88;;;23.55;100.00
35806;BME280;21925;44.608;11.580;2023-07-09T03:45:22;102044.91;;;23.46;100.00
35806;BME280;21925;44.608;11.580;2023-07-09T03:47:48;102050.47;;;23.53;100.00
35806;BME280;21925;44.608;11.580;2023-07-09T03:50:14;102068.09;;;23.61;100.00
35806;BME280;21925;44.608;11.580;2023-07-09T03:52:40;102058.50;;;23.48;100.00
35806;BME280;21925;44.608;11.580;2023-07-09T03:55:06;102054.44;;;23.80;100.00
35806;BME280;21925;44.608;11.580;2023-07-09T03:57:33;102054.34;;;24.05;100.00
35806;BME280;21925;44.608;11.580;2023-07-09T03:59:59;102057.97;;;24.02;100.00
35806;BME280;21925;44.608;11.580;2023-07-09T04:02:24;102049.56;;;24.05;100.00
35806;BME280;21925;44.608;11.580;2023-07-09T04:04:50;102054.78;;;23.96;100.00
35806;BME280;21925;44.608;11.580;2023-07-09T04:07:16;102048.75;;;24.05;100.00
35806;BME280;21925;44.608;11.580;2023-07-09T04:09:42;102063.09;;;24.17;100.00
35806;BME280;21925;44.608;11.580;2023-07-09T04:12:09;102058.34;;;24.04;100.00
35806;BME280;21925;44.608;11.580;2023-07-09T04:14:35;102046.31;;;24.10;100.00
35806;BME280;21925;44.608;11.580;2023-07-09T04:17:00;102051.16;;;24.06;100.00
35806;BME280;21925;44.608;11.580;2023-07-09T04:19:26;102045.44;;;24.27;100.00
35806;BME280;21925;44.608;11.580;2023-07-09T04:21:52;102055.78;;;24.37;100.00
35806;BME280;21925;44.608;11.580;2023-07-09T04:24:19;102054.88;;;24.61;100.00
35806;BME280;21925;44.608;11.580;2023-07-09T04:26:46;102046.84;;;24.63;100.00
35806;BME280;21925;44.608;11.580;2023-07-09T04:29:11;102044.41;;;24.65;100.00
35806;BME280;21925;44.608;11.580;2023-07-09T04:31:39;102052.38;;;24.73;100.00
35806;BME280;21925;44.608;11.580;2023-07-09T04:34:06;102054.00;;;24.71;100.00
35806;BME280;21925;44.608;11.580;2023-07-09T04:36:32;102045.22;;;24.69;100.00
35806;BME280;21925;44.608;11.580;2023-07-09T04:38:57;102058.31;;;24.86;100.00
35806;BME280;21925;44.608;11.580;2023-07-09T04:41:23;102045.09;;;24.83;100.00
35806;BME280;21925;44.608;11.580;2023-07-09T04:43:49;102049.50;;;24.84;100.00
35806;BME280;21925;44.608;11.580;2023-07-09T04:46:15;102055.91;;;24.88;100.00
35806;BME280;21925;44.608;11.580;2023-07-09T04:48:40;102059.03;;;24.93;100.00
35806;BME280;21925;44.608;11.580;2023-07-09T04:51:06;102060.56;;;25.01;100.00
35806;BME280;21925;44.608;11.580;2023-07-09T04:53:32;102062.53;;;25.07;100.00
35806;BME280;21925;44.608;11.580;2023-07-09T04:55:57;102055.31;;;25.06;100.00
35806;BME280;21925;44.608;11.580;2023-07-09T04:58:23;102059.56;;;25.28;100.00
35806;BME280;21925;44.608;11.580;2023-07-09T05:00:49;102067.16;;;25.31;100.00
35806;BME280;21925;44.608;11.580;2023-07-09T05:03:19;102070.34;;;25.33;100.00
35806;BME280;21925;44.608;11.580;2023-07-09T05:05:45;102072.81;;;25.28;100.00
35806;BME280;21925;44.608;11.580;2023-07-09T05:08:14;102086.25;;;25.50;100.00
35806;BME280;21925;44.608;11.580;2023-07-09T05:10:44;102081.75;;;25.56;100.00
35806;BME280;21925;44.608;11.580;2023-07-09T05:13:11;102080.34;;;25.75;100.00
35806;BME280;21925;44.608;11.580;2023-07-09T05:15:40;102081.13;;;25.82;100.00
35806;BME280;21925;44.608;11.580;2023-07-09T05:18:07;102079.97;;;25.76;100.00
35806;BME280;21925;44.608;11.580;2023-07-09T05:20:34;102089.22;;;25.73;100.00
35806;BME280;21925;44.608;11.580;2023-07-09T05:23:00;102086.81;;;25.75;100.00
35806;BME280;21925;44.608;11.580;2023-07-09T05:25:25;102097.63;;;25.33;100.00
35806;BME280;21925;44.608;11.580;2023-07-09T05:27:51;102095.88;;;25.49;100.00
35806;BME280;21925;44.608;11.580;2023-07-09T05:30:19;102086.31;;;25.43;100.00
35806;BME280;21925;44.608;11.580;2023-07-09T05:32:46;102083.81;;;25.52;100.00
35806;BME280;21925;44.608;11.580;2023-07-09T05:35:14;102100.34;;;25.43;100.00
35806;BME280;21925;44.608;11.580;2023-07-09T05:37:40;102100.63;;;25.56;100.00
35806;BME280;21925;44.608;11.580;2023-07-09T05:40:07;102097.47;;;25.50;100.00
35806;BME280;21925;44.608;11.580;2023-07-09T05:42:33;102092.69;;;25.47;100.00
35806;BME280;21925;44.608;11.580;2023-07-09T05:44:59;102100.53;;;25.66;100.00
35806;BME280;21925;44.608;11.580;2023-07-09T05:47:26;102102.13;;;25.67;100.00
35806;BME280;21925;44.608;11.580;2023-07-09T05:49:52;102094.94;;;25.63;100.00
35806;BME280;21925;44.608;11.580;2023-07-09T05:52:20;102100.44;;;25.77;100.00
35806;BME280;21925;44.608;11.580;2023-07-09T05:54:48;102104.97;;;26.00;100.00
35806;BME280;21925;44.608;11.580;2023-07-09T05:57:14;102099.09;;;26.21;100.00
35806;BME280;21925;44.608;11.580;2023-07-09T05:59:39;102097.09;;;26.52;100.00
35806;BME280;21925;44.608;11.580;2023-07-09T06:02:10;102110.25;;;26.62;98.09
35806;BME280;21925;44.608;11.580;2023-07-09T06:04:36;102113.88;;;26.59;97.31
35806;BME280;21925;44.608;11.580;2023-07-09T06:07:01;102109.19;;;26.78;97.60
35806;BME280;21925;44.608;11.580;2023-07-09T06:09:30;102115.09;;;26.87;95.26
35806;BME280;21925;44.608;11.580;2023-07-09T06:11:56;102128.13;;;27.04;93.82
35806;BME280;21925;44.608;11.580;2023-07-09T06:14:22;102100.94;;;27.17;93.40
35806;BME280;21925;44.608;11.580;2023-07-09T06:16:47;102102.66;;;27.11;90.98
35806;BME280;21925;44.608;11.580;2023-07-09T06:19:13;102111.97;;;27.31;91.19
35806;BME280;21925;44.608;11.580;2023-07-09T06:21:39;102109.53;;;27.33;88.99
35806;BME280;21925;44.608;11.580;2023-07-09T06:24:06;102119.72;;;27.73;87.26
35806;BME280;21925;44.608;11.580;2023-07-09T06:26:33;102115.28;;;27.72;86.06
35806;BME280;21925;44.608;11.580;2023-07-09T06:28:59;102113.22;;;27.76;86.25
35806;BME280;21925;44.608;11.580;2023-07-09T06:31:24;102108.97;;;27.87;84.18
35806;BME280;21925;44.608;11.580;2023-07-09T06:33:51;102117.59;;;28.19;82.45
35806;BME280;21925;44.608;11.580;2023-07-09T06:36:17;102122.16;;;28.32;80.65
35806;BME280;21925;44.608;11.580;2023-07-09T06:38:44;102114.41;;;28.36;79.93
35806;BME280;21925;44.608;11.580;2023-07-09T06:41:10;102127.50;;;28.46;78.76
35806;BME280;21925;44.608;11.580;2023-07-09T06:43:36;102119.00;;;28.66;76.68
35806;BME280;21925;44.608;11.580;2023-07-09T06:46:05;102113.34;;;28.66;74.42
35806;BME280;21925;44.608;11.580;2023-07-09T06:48:31;102126.16;;;28.70;74.28
35806;BME280;21925;44.608;11.580;2023-07-09T06:50:58;102112.66;;;28.97;74.23
35806;BME280;21925;44.608;11.580;2023-07-09T06:53:26;102127.28;;;29.24;74.03
35806;BME280;21925;44.608;11.580;2023-07-09T06:55:52;102126.25;;;29.18;71.81
35806;BME280;21925;44.608;11.580;2023-07-09T06:58:21;102123.88;;;29.32;71.78
35806;BME280;21925;44.608;11.580;2023-07-09T07:00:51;102116.91;;;29.53;71.47
35806;BME280;21925;44.608;11.580;2023-07-09T07:03:17;102112.59;;;29.93;70.67
35806;BME280;21925;44.608;11.580;2023-07-09T07:05:45;102124.09;;;29.86;68.18
35806;BME280;21925;44.608;11.580;2023-07-09T07:08:13;102119.56;;;29.88;69.02
35806;BME280;21925;44.608;11.580;2023-07-09T07:10:40;102106.72;;;29.71;69.03
35806;BME280;21925;44.608;11.580;2023-07-09T07:13:06;102115.53;;;30.17;67.00
35806;BME280;21925;44.608;11.580;2023-07-09T07:15:32;102115.94;;;30.44;66.18
35806;BME280;21925;44.608;11.580;2023-07-09T07:17:57;102124.59;;;30.53;65.22
35806;BME280;21925;44.608;11.580;2023-07-09T07:20:23;102123.25;;;30.95;64.57
35806;BME280;21925;44.608;11.580;2023-07-09T07:22:49;102117.94;;;31.09;63.56
35806;BME280;21925;44.608;11.580;2023-07-09T07:25:16;102118.84;;;31.06;64.43
35806;BME280;21925;44.608;11.580;2023-07-09T07:27:41;102117.47;;;31.23;63.31
35806;BME280;21925;44.608;11.580;2023-07-09T07:30:08;102104.09;;;31.36;63.08
35806;BME280;21925;44.608;11.580;2023-07-09T07:32:47;102100.56;;;31.32;62.67
35806;BME280;21925;44.608;11.580;2023-07-09T07:35:13;102114.38;;;31.43;60.36
35806;BME280;21925;44.608;11.580;2023-07-09T07:37:42;102110.03;;;31.51;60.39
35806;BME280;21925;44.608;11.580;2023-07-09T07:40:09;102114.59;;;31.61;60.20
35806;BME280;21925;44.608;11.580;2023-07-09T07:42:35;102113.06;;;32.02;58.59
35806;BME280;21925;44.608;11.580;2023-07-09T07:45:01;102105.91;;;32.10;59.75
35806;BME280;21925;44.608;11.580;2023-07-09T07:47:27;102107.00;;;32.34;60.28
35806;BME280;21925;44.608;11.580;2023-07-09T07:49:54;102103.56;;;33.00;59.32
35806;BME280;21925;44.608;11.580;2023-07-09T07:52:20;102105.66;;;33.08;58.09
35806;BME280;21925;44.608;11.580;2023-07-09T07:54:46;102096.75;;;32.88;58.86
35806;BME280;21925;44.608;11.580;2023-07-09T07:57:11;102093.22;;;33.15;58.78
35806;BME280;21925;44.608;11.580;2023-07-09T07:59:38;102104.94;;;33.26;57.42
35806;BME280;21925;44.608;11.580;2023-07-09T08:02:05;102094.97;;;33.21;58.59
35806;BME280;21925;44.608;11.580;2023-07-09T08:04:32;102099.31;;;33.43;57.17
35806;BME280;21925;44.608;11.580;2023-07-09T08:06:58;102099.19;;;34.10;57.05
35806;BME280;21925;44.608;11.580;2023-07-09T08:09:24;102098.34;;;34.36;55.47
35806;BME280;21925;44.608;11.580;2023-07-09T08:11:50;102089.56;;;34.07;54.15
35806;BME280;21925;44.608;11.580;2023-07-09T08:14:16;102070.78;;;34.60;54.74
35806;BME280;21925;44.608;11.580;2023-07-09T08:16:42;102095.28;;;34.98;55.13
35806;BME280;21925;44.608;11.580;2023-07-09T08:19:08;102087.84;;;35.01;53.80
35806;BME280;21925;44.608;11.580;2023-07-09T08:21:34;102097.56;;;35.74;53.68
35806;BME280;21925;44.608;11.580;2023-07-09T08:24:00;102096.22;;;35.13;52.90
35806;BME280;21925;44.608;11.580;2023-07-09T08:26:26;102090.88;;;34.56;54.02
35806;BME280;21925;44.608;11.580;2023-07-09T08:28:53;102095.22;;;34.84;53.53
35806;BME280;21925;44.608;11.580;2023-07-09T08:31:19;102093.84;;;35.35;52.89
35806;BME280;21925;44.608;11.580;2023-07-09T08:33:47;102083.09;;;35.77;53.33
35806;BME280;21925;44.608;11.580;2023-07-09T08:36:13;102089.88;;;36.32;52.46
35806;BME280;21925;44.608;11.580;2023-07-09T08:38:42;102089.97;;;36.23;52.60
35806;BME280;21925;44.608;11.580;2023-07-09T08:41:20;102088.81;;;35.77;50.89
35806;BME280;21925;44.608;11.580;2023-07-09T08:44:14;102086.09;;;35.97;49.90
35806;BME280;21925;44.608;11.580;2023-07-09T08:46:52;102086.19;;;37.03;51.81
35806;BME280;21925;44.608;11.580;2023-07-09T08:49:23;102089.88;;;36.89;50.51
35806;BME280;21925;44.608;11.580;2023-07-09T08:51:53;102091.81;;;36.83;49.46
35806;BME280;21925;44.608;11.580;2023-07-09T08:54:32;102100.50;;;36.02;49.91
35806;BME280;21925;44.608;11.580;2023-07-09T08:57:18;102093.72;;;36.29;49.75
35806;BME280;21925;44.608;11.580;2023-07-09T08:59:47;102099.75;;;36.45;48.52
35806;BME280;21925;44.608;11.580;2023-07-09T09:02:39;102095.25;;;37.02;48.39
35806;BME280;21925;44.608;11.580;2023-07-09T09:05:10;102096.09;;;38.02;48.50
35806;BME280;21925;44.608;11.580;2023-07-09T09:07:40;102087.69;;;38.43;48.82
35806;BME280;21925;44.608;11.580;2023-07-09T09:10:13;102086.41;;;38.44;47.41
35806;BME280;21925;44.608;11.580;2023-07-09T09:15:21;102085.69;;;38.86;47.45
35806;BME280;21925;44.608;11.580;2023-07-09T09:17:51;102077.63;;;38.84;45.94
35806;BME280;21925;44.608;11.580;2023-07-09T09:20:20;102077.00;;;39.11;46.09
35806;BME280;21925;44.608;11.580;2023-07-09T09:25:35;102080.78;;;38.61;47.11
35806;BME280;21925;44.608;11.580;2023-07-09T09:28:03;102085.22;;;39.29;45.90
35806;BME280;21925;44.608;11.580;2023-07-09T09:30:29;102078.91;;;38.52;44.98
35806;BME280;21925;44.608;11.580;2023-07-09T09:32:56;102085.53;;;38.38;46.17
35806;BME280;21925;44.608;11.580;2023-07-09T09:35:34;102075.94;;;38.72;45.18
35806;BME280;21925;44.608;11.580;2023-07-09T09:38:01;102095.88;;;38.31;46.02
35806;BME280;21925;44.608;11.580;2023-07-09T09:40:29;102094.00;;;38.22;46.24
35806;BME280;21925;44.608;11.580;2023-07-09T09:42:58;102082.22;;;38.71;46.61
35806;BME280;21925;44.608;11.580;2023-07-09T09:45:33;102085.78;;;39.38;45.18
35806;BME280;21925;44.608;11.580;2023-07-09T09:48:14;102089.06;;;39.68;44.52
35806;BME280;21925;44.608;11.580;2023-07-09T09:50:40;102087.47;;;39.14;43.17
35806;BME280;21925;44.608;11.580;2023-07-09T09:53:08;102085.25;;;39.98;42.73
35806;BME280;21925;44.608;11.580;2023-07-09T09:55:34;102091.53;;;39.44;42.68
35806;BME280;21925;44.608;11.580;2023-07-09T09:58:00;102091.91;;;39.62;44.25
35806;BME280;21925;44.608;11.580;2023-07-09T10:00:29;102086.53;;;39.92;43.72
35806;BME280;21925;44.608;11.580;2023-07-09T10:03:01;102095.47;;;40.05;44.03
35806;BME280;21925;44.608;11.580;2023-07-09T10:05:34;102092.44;;;40.79;43.29
35806;BME280;21925;44.608;11.580;2023-07-09T10:08:28;102095.00;;;40.99;42.19
35806;BME280;21925;44.608;11.580;2023-07-09T10:11:10;102091.59;;;40.29;40.42
35806;BME280;21925;44.608;11.580;2023-07-09T10:13:40;102085.84;;;40.29;41.20
35806;BME280;21925;44.608;11.580;2023-07-09T10:16:26;102086.59;;;40.24;42.21
35806;BME280;21925;44.608;11.580;2023-07-09T10:19:12;102096.59;;;40.89;42.29
35806;BME280;21925;44.608;11.580;2023-07-09T10:27:25;102095.41;;;41.47;41.95
35806;BME280;21925;44.608;11.580;2023-07-09T10:30:15;102095.97;;;41.40;42.45
35806;BME280;21925;44.608;11.580;2023-07-09T10:33:00;102095.53;;;41.87;41.13
35806;BME280;21925;44.608;11.580;2023-07-09T10:35:55;102095.78;;;42.93;41.10
35806;BME280;21925;44.608;11.580;2023-07-09T10:41:45;102087.66;;;43.40;41.30
35806;BME280;21925;44.608;11.580;2023-07-09T10:44:19;102087.16;;;41.83;40.64
35806;BME280;21925;44.608;11.580;2023-07-09T10:46:49;102083.72;;;41.90;39.79
35806;BME280;21925;44.608;11.580;2023-07-09T10:49:17;102066.84;;;42.75;40.63
35806;BME280;21925;44.608;11.580;2023-07-09T10:51:49;102075.50;;;43.46;39.71
35806;BME280;21925;44.608;11.580;2023-07-09T10:54:39;102073.41;;;42.46;39.63
35806;BME280;21925;44.608;11.580;2023-07-09T10:57:41;102077.88;;;42.01;40.12
35806;BME280;21925;44.608;11.580;2023-07-09T11:00:19;102067.28;;;42.55;40.29
35806;BME280;21925;44.608;11.580;2023-07-09T11:02:57;102068.75;;;41.41;39.88
35806;BME280;21925;44.608;11.580;2023-07-09T11:05:24;102064.53;;;41.47;40.13
35806;BME280;21925;44.608;11.580;2023-07-09T11:08:10;102067.06;;;40.78;40.59
35806;BME280;21925;44.608;11.580;2023-07-09T11:10:41;102065.47;;;40.60;40.64
35806;BME280;21925;44.608;11.580;2023-07-09T11:13:16;102065.16;;;41.18;40.56
35806;BME280;21925;44.608;11.580;2023-07-09T11:15:48;102070.69;;;40.89;40.98
35806;BME280;21925;44.608;11.580;2023-07-09T11:18:25;102067.78;;;41.11;41.38
35806;BME280;21925;44.608;11.580;2023-07-09T11:21:03;102060.78;;;41.69;39.01
35806;BME280;21925;44.608;11.580;2023-07-09T11:23:54;102060.41;;;41.94;38.00
35806;BME280;21925;44.608;11.580;2023-07-09T11:28:55;102047.63;;;41.78;39.67
35806;BME280;21925;44.608;11.580;2023-07-09T11:31:34;102049.25;;;40.57;39.88
35806;BME280;21925;44.608;11.580;2023-07-09T11:39:42;102030.66;;;42.45;39.91
35806;BME280;21925;44.608;11.580;2023-07-09T11:42:32;102039.13;;;41.46;40.99
35806;BME280;21925;44.608;11.580;2023-07-09T11:47:33;102038.31;;;41.56;40.25
35806;BME280;21925;44.608;11.580;2023-07-09T11:50:35;102033.25;;;42.13;39.11
35806;BME280;21925;44.608;11.580;2023-07-09T11:53:05;102040.09;;;41.70;38.96
35806;BME280;21925;44.608;11.580;2023-07-09T11:55:41;102031.03;;;42.30;38.75
35806;BME280;21925;44.608;11.580;2023-07-09T11:58:10;102027.34;;;41.55;39.56
35806;BME280;21925;44.608;11.580;2023-07-09T12:00:45;102030.69;;;42.68;39.84
35806;BME280;21925;44.608;11.580;2023-07-09T12:03:25;102029.94;;;42.92;37.02
35806;BME280;21925;44.608;11.580;2023-07-09T12:05:59;102021.69;;;42.77;38.35
35806;BME280;21925;44.608;11.580;2023-07-09T12:08:36;102022.91;;;42.58;37.67
35806;BME280;21925;44.608;11.580;2023-07-09T12:11:03;102018.69;;;42.88;37.79
35806;BME280;21925;44.608;11.580;2023-07-09T12:13:35;102029.81;;;43.27;37.97
35806;BME280;21925;44.608;11.580;2023-07-09T12:16:01;102030.66;;;42.74;37.30
35806;BME280;21925;44.608;11.580;2023-07-09T12:18:29;102035.91;;;41.66;38.65
35806;BME280;21925;44.608;11.580;2023-07-09T12:20:55;102023.88;;;42.07;38.59
35806;BME280;21925;44.608;11.580;2023-07-09T12:23:29;102011.16;;;41.86;37.76
35806;BME280;21925;44.608;11.580;2023-07-09T12:26:01;102017.47;;;41.85;37.93
35806;BME280;21925;44.608;11.580;2023-07-09T12:28:30;102012.44;;;43.69;38.78
35806;BME280;21925;44.608;11.580;2023-07-09T12:30:56;102007.09;;;44.10;38.57
35806;BME280;21925;44.608;11.580;2023-07-09T12:33:25;102003.66;;;44.42;39.14
35806;BME280;21925;44.608;11.580;2023-07-09T12:36:00;101993.34;;;43.97;37.68
35806;BME280;21925;44.608;11.580;2023-07-09T12:38:43;101993.22;;;43.35;37.87
35806;BME280;21925;44.608;11.580;2023-07-09T12:41:28;101997.13;;;43.55;39.08
35806;BME280;21925;44.608;11.580;2023-07-09T12:43:55;101995.09;;;43.87;39.35
35806;BME280;21925;44.608;11.580;2023-07-09T12:46:22;101988.13;;;44.27;37.73
35806;BME280;21925;44.608;11.580;2023-07-09T12:48:48;102001.84;;;44.97;38.26
35806;BME280;21925;44.608;11.580;2023-07-09T12:51:25;101993.22;;;45.30;37.23
35806;BME280;21925;44.608;11.580;2023-07-09T12:54:13;101983.34;;;45.00;36.47
35806;BME280;21925;44.608;11.580;2023-07-09T12:56:40;101987.41;;;45.56;36.61
35806;BME280;21925;44.608;11.580;2023-07-09T12:59:37;101986.91;;;45.78;36.80
35806;BME280;21925;44.608;11.580;2023-07-09T13:02:17;101978.97;;;44.10;35.65
35806;BME280;21925;44.608;11.580;2023-07-09T13:04:44;101981.56;;;43.95;35.98
35806;BME280;21925;44.608;11.580;2023-07-09T13:07:29;101967.97;;;44.22;37.18
35806;BME280;21925;44.608;11.580;2023-07-09T13:10:14;101966.81;;;44.43;36.07
35806;BME280;21925;44.608;11.580;2023-07-09T13:12:41;101960.38;;;44.06;37.85
35806;BME280;21925;44.608;11.580;2023-07-09T13:15:25;101965.78;;;43.96;37.54